Time;durP1;ratioP1;P1;durP2;ratioP2;P2;SDS_P1;SDS_P2;PMS_P1;PMS_P2;Temp;Humidity;BMP_temperature;BMP_pressure;BME280_temperature;BME280_humidity;BME280_pressure;Samples;Min_cycle;Max_cycle;Signal;HPM_P1;HPM_P2
2022/12/20 00:02:01;;;;;;;0.90;0.75;;;;;;;;;;5105558;28;20028;-49
2022/12/20 00:04:27;;;;;;;1.13;0.52;;;;;;;;;;5105260;28;20092;-49
2022/12/20 00:06:53;;;;;;;1.35;0.80;;;;;;;;;;5105801;28;20042;-49
2022/12/20 00:09:19;;;;;;;2.30;0.65;;;;;;;;;;5105878;28;20024;-47
2022/12/20 00:11:45;;;;;;;2.05;0.60;;;;;;;;;;5104011;28;20050;-46
2022/12/20 00:14:11;;;;;;;0.65;0.55;;;;;;;;;;5105825;28;20035;-47
2022/12/20 00:16:37;;;;;;;1.25;1.00;;;;;;;;;;5105394;28;20028;-49
2022/12/20 00:19:05;;;;;;;1.38;0.70;;;;;;;;;;5085834;28;20035;-49
2022/12/20 00:21:32;;;;;;;1.33;0.63;;;;;;;;;;5105383;28;20661;-49
2022/12/20 00:23:58;;;;;;;1.33;0.60;;;;;;;;;;5101275;28;20028;-49
2022/12/20 00:26:28;;;;;;;1.50;0.70;;;;;;;;;;5066295;28;20494;-48
2022/12/20 00:28:55;;;;;;;1.45;0.82;;;;;;;;;;5066878;28;20486;-50
2022/12/20 00:31:22;;;;;;;1.23;0.60;;;;;;;;;;5084858;28;20111;-46
2022/12/20 00:33:49;;;;;;;2.38;0.88;;;;;;;;;;5088895;28;20032;-49
2022/12/20 00:36:16;;;;;;;3.05;0.98;;;;;;;;;;5104145;28;20031;-45
2022/12/20 00:38:47;;;;;;;2.00;0.80;;;;;;;;;;5105584;28;20540;-50
2022/12/20 00:41:14;;;;;;;1.15;0.60;;;;;;;;;;5111904;28;20116;-48
2022/12/20 00:43:41;;;;;;;1.75;0.60;;;;;;;;;;5111810;28;20085;-50
2022/12/20 00:46:08;;;;;;;2.42;0.65;;;;;;;;;;5111654;28;20028;-49
2022/12/20 00:48:35;;;;;;;0.93;0.40;;;;;;;;;;5111048;28;20028;-46
2022/12/20 00:51:02;;;;;;;0.85;0.60;;;;;;;;;;5111610;28;20129;-50
2022/12/20 00:53:28;;;;;;;1.17;0.60;;;;;;;;;;5110147;28;20039;-51
2022/12/20 00:55:55;;;;;;;2.95;0.85;;;;;;;;;;5111467;28;20034;-50
2022/12/20 00:58:21;;;;;;;0.85;0.68;;;;;;;;;;5097809;28;20030;-48
2022/12/20 01:00:47;;;;;;;1.60;0.75;;;;;;;;;;5095194;28;20027;-47
2022/12/20 01:03:13;;;;;;;2.38;0.63;;;;;;;;;;5111053;28;20036;-51
2022/12/20 06:11:53;;;;;;;0.70;0.70;;;;;;;;;;5092695;28;20038;-52
2022/12/20 06:14:19;;;;;;;2.28;0.90;;;;;;;;;;5097572;28;20028;-47
2022/12/20 06:16:46;;;;;;;1.65;0.70;;;;;;;;;;5085761;28;20146;-47
2022/12/20 06:19:13;;;;;;;3.75;0.85;;;;;;;;;;5087942;28;20343;-49
2022/12/20 06:21:39;;;;;;;2.65;1.13;;;;;;;;;;5088024;28;20016;-47
2022/12/20 06:24:05;;;;;;;2.17;0.68;;;;;;;;;;5086622;28;20119;-48
2022/12/20 06:26:35;;;;;;;2.00;0.93;;;;;;;;;;5087908;28;20388;-49
2022/12/20 06:29:01;;;;;;;1.55;0.85;;;;;;;;;;5086820;28;20028;-48
2022/12/20 06:31:27;;;;;;;1.27;0.80;;;;;;;;;;5067469;28;20100;-49
2022/12/20 06:33:54;;;;;;;3.33;0.82;;;;;;;;;;5049468;28;20119;-47
2022/12/20 06:36:20;;;;;;;1.38;0.70;;;;;;;;;;5067539;28;20028;-47
2022/12/20 06:38:46;;;;;;;2.65;0.80;;;;;;;;;;5067190;28;20085;-49
2022/12/20 06:41:12;;;;;;;1.67;0.82;;;;;;;;;;5067224;28;20025;-49
2022/12/20 06:43:39;;;;;;;2.10;0.80;;;;;;;;;;5067120;28;20039;-47
2022/12/20 06:46:05;;;;;;;0.88;0.70;;;;;;;;;;5086375;28;20443;-46
2022/12/20 06:48:31;;;;;;;3.80;0.98;;;;;;;;;;5087474;28;20082;-47
2022/12/20 06:50:57;;;;;;;2.70;0.73;;;;;;;;;;5087379;28;20020;-48
2022/12/20 06:53:24;;;;;;;2.83;1.30;;;;;;;;;;5086480;28;20486;-46
2022/12/20 06:55:50;;;;;;;3.97;0.93;;;;;;;;;;5087712;28;20036;-50
2022/12/20 06:58:17;;;;;;;1.08;0.65;;;;;;;;;;5087256;28;20463;-48
2022/12/20 07:00:44;;;;;;;1.42;0.70;;;;;;;;;;5087032;28;20035;-47
2022/12/20 07:03:10;;;;;;;1.65;0.73;;;;;;;;;;5085372;28;20112;-46
2022/12/20 07:05:36;;;;;;;2.72;0.90;;;;;;;;;;5088299;28;20411;-46
2022/12/20 07:08:03;;;;;;;2.60;0.70;;;;;;;;;;5088002;28;20028;-47
2022/12/20 07:10:29;;;;;;;2.78;0.98;;;;;;;;;;5088408;28;20518;-49
2022/12/20 07:12:55;;;;;;;1.67;0.70;;;;;;;;;;5088149;28;20028;-49
2022/12/20 07:15:21;;;;;;;1.08;0.70;;;;;;;;;;5127840;27;20169;-47
2022/12/20 07:17:48;;;;;;;2.08;0.85;;;;;;;;;;5108410;27;20023;-46
2022/12/20 07:20:15;;;;;;;2.45;0.77;;;;;;;;;;5108282;28;20474;-49
2022/12/20 07:22:41;;;;;;;0.68;0.60;;;;;;;;;;5108361;28;20368;-48
2022/12/20 07:25:07;;;;;;;0.60;0.60;;;;;;;;;;5108392;28;20093;-47
2022/12/20 07:27:34;;;;;;;3.33;0.90;;;;;;;;;;5107722;28;20023;-49
2022/12/20 07:30:00;;;;;;;1.13;0.73;;;;;;;;;;5094705;28;20390;-48
2022/12/20 07:32:26;;;;;;;4.13;1.15;;;;;;;;;;5105956;28;20024;-48
2022/12/20 07:34:52;;;;;;;2.92;0.80;;;;;;;;;;5107366;28;20063;-49
2022/12/20 07:37:18;;;;;;;1.98;0.80;;;;;;;;;;5105159;28;20844;-48
2022/12/20 07:39:44;;;;;;;1.50;0.70;;;;;;;;;;5108370;28;20115;-48
2022/12/20 07:42:10;;;;;;;2.47;0.75;;;;;;;;;;5100624;28;20035;-50
2022/12/20 07:44:36;;;;;;;1.15;0.73;;;;;;;;;;5088082;28;20024;-49
2022/12/20 07:47:02;;;;;;;3.15;0.98;;;;;;;;;;5087943;28;20580;-47
2022/12/20 07:49:28;;;;;;;2.05;1.00;;;;;;;;;;5087960;28;20028;-48
2022/12/20 07:51:57;;;;;;;2.13;1.00;;;;;;;;;;5103782;28;20020;-49
2022/12/20 07:54:31;;;;;;;1.55;0.80;;;;;;;;;;5095363;28;20031;-48
2022/12/20 07:56:59;;;;;;;1.65;0.90;;;;;;;;;;5108993;28;20038;-50
2022/12/20 07:59:28;;;;;;;2.05;0.90;;;;;;;;;;5106458;28;20417;-47
2022/12/20 08:01:54;;;;;;;2.30;0.93;;;;;;;;;;5102144;28;20027;-47
2022/12/20 08:04:23;;;;;;;1.52;0.70;;;;;;;;;;5106942;28;20100;-49
2022/12/20 08:06:50;;;;;;;2.08;0.98;;;;;;;;;;5106810;28;20023;-48
2022/12/20 08:09:16;;;;;;;2.42;1.05;;;;;;;;;;5102964;28;20390;-51
2022/12/20 08:11:44;;;;;;;4.07;0.98;;;;;;;;;;5101135;28;20023;-47
2022/12/20 08:14:10;;;;;;;1.83;1.25;;;;;;;;;;5097537;28;20063;-49
2022/12/20 08:16:37;;;;;;;1.50;0.95;;;;;;;;;;5102808;28;20073;-47
2022/12/20 08:19:03;;;;;;;0.75;0.75;;;;;;;;;;5101772;28;20032;-50
2022/12/20 08:21:30;;;;;;;2.38;1.23;;;;;;;;;;5107376;28;20059;-49
2022/12/20 08:23:56;;;;;;;2.65;0.88;;;;;;;;;;5096047;28;20038;-47
2022/12/20 08:26:22;;;;;;;1.70;0.80;;;;;;;;;;5103449;28;20032;-47
2022/12/20 08:28:48;;;;;;;2.58;0.75;;;;;;;;;;5106945;28;20028;-51
2022/12/20 08:31:15;;;;;;;2.08;0.80;;;;;;;;;;5107694;28;20032;-48
2022/12/20 08:33:41;;;;;;;1.50;0.73;;;;;;;;;;5107767;28;20032;-49
2022/12/20 08:36:09;;;;;;;1.02;0.93;;;;;;;;;;5104638;28;20053;-48
2022/12/20 08:38:35;;;;;;;0.80;0.73;;;;;;;;;;5107577;28;20517;-50
2022/12/20 08:41:05;;;;;;;1.65;1.10;;;;;;;;;;5107421;28;20032;-48
2022/12/20 08:43:33;;;;;;;1.40;0.85;;;;;;;;;;5087834;28;20036;-50
2022/12/20 08:45:59;;;;;;;2.90;1.27;;;;;;;;;;5087142;28;20031;-49
2022/12/20 08:48:25;;;;;;;2.92;1.05;;;;;;;;;;5096987;28;20538;-50
2022/12/20 08:50:55;;;;;;;1.33;0.80;;;;;;;;;;5105116;28;20051;-46
2022/12/20 08:53:21;;;;;;;1.52;0.98;;;;;;;;;;5107891;28;20042;-48
2022/12/20 08:55:47;;;;;;;1.77;0.85;;;;;;;;;;5108639;28;20416;-46
2022/12/20 08:58:14;;;;;;;3.30;1.00;;;;;;;;;;5096703;28;20045;-49
2022/12/20 09:00:41;;;;;;;3.15;1.15;;;;;;;;;;5081521;28;20024;-47
2022/12/20 09:03:08;;;;;;;1.48;1.05;;;;;;;;;;5099986;28;20773;-46
2022/12/20 09:05:34;;;;;;;1.25;0.98;;;;;;;;;;5097512;28;20024;-46
2022/12/20 09:08:00;;;;;;;3.10;1.20;;;;;;;;;;5099560;28;20063;-47
2022/12/20 09:10:26;;;;;;;1.33;0.65;;;;;;;;;;5097985;28;20306;-48
2022/12/20 09:12:52;;;;;;;1.83;0.90;;;;;;;;;;5099208;28;20111;-51
2022/12/20 09:15:19;;;;;;;2.20;0.88;;;;;;;;;;5097094;28;20031;-45
2022/12/20 09:17:46;;;;;;;2.80;0.90;;;;;;;;;;5099890;28;20562;-47
2022/12/20 09:20:12;;;;;;;2.67;1.05;;;;;;;;;;5095118;28;20121;-47
2022/12/20 09:22:38;;;;;;;1.88;0.90;;;;;;;;;;5100516;28;20035;-48
2022/12/20 09:25:05;;;;;;;2.88;1.00;;;;;;;;;;5095717;28;20063;-50
2022/12/20 09:27:32;;;;;;;1.98;0.88;;;;;;;;;;5099330;28;20031;-47
2022/12/20 09:29:58;;;;;;;3.22;1.10;;;;;;;;;;5098013;28;20035;-46
2022/12/20 09:32:24;;;;;;;2.42;0.93;;;;;;;;;;5098484;28;20038;-50
2022/12/20 09:34:49;;;;;;;1.85;1.27;;;;;;;;;;5095078;28;20027;-49
2022/12/20 09:37:17;;;;;;;2.65;1.10;;;;;;;;;;5098349;28;20031;-46
2022/12/20 09:39:42;;;;;;;2.83;1.00;;;;;;;;;;5096846;28;20036;-47
2022/12/20 09:42:09;;;;;;;2.65;0.90;;;;;;;;;;5099096;28;20092;-47
2022/12/20 09:44:39;;;;;;;1.42;0.82;;;;;;;;;;5095441;28;20106;-50
2022/12/20 09:47:07;;;;;;;2.42;0.98;;;;;;;;;;5099127;28;20107;-46
2022/12/20 09:49:35;;;;;;;1.20;0.80;;;;;;;;;;5098655;28;20035;-47
2022/12/20 09:52:14;;;;;;;2.35;0.90;;;;;;;;;;5099529;28;20032;-50
2022/12/20 09:54:52;;;;;;;2.13;0.90;;;;;;;;;;5094978;28;20036;-47
2022/12/20 09:57:24;;;;;;;2.60;0.90;;;;;;;;;;5100107;28;20478;-50
2022/12/20 09:59:50;;;;;;;3.33;0.90;;;;;;;;;;5097828;28;20067;-47
2022/12/20 10:02:19;;;;;;;2.50;1.00;;;;;;;;;;5100076;28;20070;-48
2022/12/20 10:04:46;;;;;;;4.43;1.50;;;;;;;;;;5095056;27;20059;-46
2022/12/20 10:07:21;;;;;;;3.30;1.08;;;;;;;;;;5100542;28;20839;-48
2022/12/20 10:10:02;;;;;;;1.23;0.82;;;;;;;;;;5097839;28;20028;-47
2022/12/20 10:12:28;;;;;;;2.08;0.75;;;;;;;;;;5099506;28;20111;-51
2022/12/20 10:15:10;;;;;;;4.20;1.10;;;;;;;;;;5084706;28;20971;-47
2022/12/20 10:17:45;;;;;;;6.03;1.00;;;;;;;;;;5084246;28;20067;-47
2022/12/20 10:20:17;;;;;;;2.42;0.90;;;;;;;;;;5080055;28;20105;-51
2022/12/20 10:22:48;;;;;;;2.35;1.00;;;;;;;;;;5078278;28;20186;-50
2022/12/20 10:25:23;;;;;;;1.50;0.88;;;;;;;;;;5076818;28;20504;-49
2022/12/20 10:27:50;;;;;;;1.55;1.08;;;;;;;;;;5082662;28;20024;-50
2022/12/20 10:30:18;;;;;;;1.90;0.98;;;;;;;;;;5079431;28;20102;-48
2022/12/20 10:32:46;;;;;;;4.35;1.08;;;;;;;;;;5083351;28;20024;-48
2022/12/20 10:35:15;;;;;;;6.50;1.10;;;;;;;;;;5078466;28;20120;-50
2022/12/20 10:37:59;;;;;;;4.35;1.52;;;;;;;;;;5082250;28;20193;-51
2022/12/20 10:40:28;;;;;;;3.72;1.02;;;;;;;;;;5078433;28;20050;-51
2022/12/20 10:42:54;;;;;;;1.45;0.82;;;;;;;;;;5080844;28;20036;-50
2022/12/20 10:45:20;;;;;;;2.47;1.30;;;;;;;;;;5077149;28;20434;-52
2022/12/20 10:47:47;;;;;;;1.45;1.00;;;;;;;;;;5080781;28;20388;-49
2022/12/20 10:50:13;;;;;;;3.17;1.00;;;;;;;;;;5079799;28;20143;-48
2022/12/20 10:52:39;;;;;;;4.20;1.10;;;;;;;;;;5082480;28;20038;-49
2022/12/20 10:55:25;;;;;;;1.67;0.80;;;;;;;;;;5077124;28;20044;-50
2022/12/20 10:57:51;;;;;;;3.50;1.02;;;;;;;;;;5082201;28;20039;-50
2022/12/20 11:00:28;;;;;;;4.40;1.08;;;;;;;;;;5079493;28;20263;-48
2022/12/20 11:03:23;;;;;;;1.67;0.80;;;;;;;;;;5079779;28;20080;-47
2022/12/20 11:05:55;;;;;;;2.38;0.90;;;;;;;;;;5054905;28;20530;-47
2022/12/20 11:08:23;;;;;;;2.92;0.93;;;;;;;;;;5078603;28;20060;-49
2022/12/20 11:10:50;;;;;;;1.15;0.90;;;;;;;;;;5079604;28;20016;-50
2022/12/20 11:13:28;;;;;;;5.43;1.67;;;;;;;;;;5081706;28;20569;-51
2022/12/20 11:15:56;;;;;;;1.98;1.08;;;;;;;;;;5096652;28;20023;-49
2022/12/20 11:18:31;;;;;;;2.38;0.90;;;;;;;;;;5098513;28;20049;-51
2022/12/20 11:20:57;;;;;;;2.67;0.80;;;;;;;;;;5097339;28;20066;-51
2022/12/20 11:23:35;;;;;;;2.00;1.10;;;;;;;;;;5099605;28;20042;-47
2022/12/20 11:26:01;;;;;;;1.88;1.23;;;;;;;;;;5097548;28;20035;-51
2022/12/20 11:28:46;;;;;;;2.70;1.20;;;;;;;;;;5099964;28;20024;-50
2022/12/20 11:31:15;;;;;;;4.28;1.27;;;;;;;;;;5098995;28;20031;-49
2022/12/20 11:33:47;;;;;;;2.40;1.63;;;;;;;;;;5100299;28;20573;-50
2022/12/20 11:36:22;;;;;;;5.00;1.52;;;;;;;;;;5098583;28;20028;-49
2022/12/20 11:39:07;;;;;;;3.88;1.40;;;;;;;;;;5100451;28;20024;-49
2022/12/20 11:41:33;;;;;;;;;;;;;;;;;;5099766;28;20063;-49
2022/12/20 11:44:09;;;;;;;2.78;1.30;;;;;;;;;;5099154;28;20031;-52
2022/12/20 11:46:40;;;;;;;3.33;1.30;;;;;;;;;;5098512;28;20664;-48
2022/12/20 11:49:25;;;;;;;1.45;1.00;;;;;;;;;;5098733;28;20089;-50
2022/12/20 11:52:04;;;;;;;4.25;1.20;;;;;;;;;;5095918;28;20088;-51
2022/12/20 11:54:34;;;;;;;2.15;1.15;;;;;;;;;;5098067;28;20024;-47
2022/12/20 11:57:04;;;;;;;3.17;1.10;;;;;;;;;;5097972;28;20043;-49
2022/12/20 11:59:56;;;;;;;2.42;0.90;;;;;;;;;;5095797;28;20582;-52
2022/12/20 12:02:49;;;;;;;1.55;0.90;;;;;;;;;;5098024;28;20679;-50
2022/12/20 12:05:15;;;;;;;3.72;1.10;;;;;;;;;;5064288;28;20047;-53
2022/12/20 12:07:43;;;;;;;1.27;0.98;;;;;;;;;;5099153;28;20047;-52
2022/12/20 12:10:12;;;;;;;2.50;1.27;;;;;;;;;;5097223;28;20023;-51
2022/12/20 12:12:45;;;;;;;2.00;1.10;;;;;;;;;;5099243;28;20046;-52
2022/12/20 12:15:14;;;;;;;2.15;1.17;;;;;;;;;;5095992;28;20040;-49
2022/12/20 12:17:47;;;;;;;2.65;0.88;;;;;;;;;;5097988;28;20036;-51
2022/12/20 12:20:35;;;;;;;2.17;0.85;;;;;;;;;;5095202;28;20080;-50
2022/12/20 12:23:05;;;;;;;2.83;0.80;;;;;;;;;;5094562;28;20102;-48
2022/12/20 12:25:31;;;;;;;2.53;1.17;;;;;;;;;;5092570;28;20044;-49
2022/12/20 12:27:57;;;;;;;1.73;0.82;;;;;;;;;;5095173;28;20076;-50
2022/12/20 12:30:23;;;;;;;1.90;0.70;;;;;;;;;;5072089;28;20042;-51
2022/12/20 12:32:53;;;;;;;3.25;1.15;;;;;;;;;;5092878;28;20019;-49
2022/12/20 12:35:38;;;;;;;1.70;1.00;;;;;;;;;;5095004;28;20034;-52
2022/12/20 12:38:23;;;;;;;1.02;0.63;;;;;;;;;;5098688;28;20028;-50
2022/12/20 12:41:00;;;;;;;2.47;0.90;;;;;;;;;;5098388;28;20065;-50
2022/12/20 12:43:41;;;;;;;5.63;0.90;;;;;;;;;;5098177;28;20631;-52
2022/12/20 12:46:26;;;;;;;1.15;0.82;;;;;;;;;;5094659;28;20023;-48
2022/12/20 12:48:56;;;;;;;2.35;0.80;;;;;;;;;;5098230;28;20045;-49
2022/12/20 12:51:33;;;;;;;3.58;1.00;;;;;;;;;;5097051;28;20007;-50
2022/12/20 12:54:20;;;;;;;3.65;0.93;;;;;;;;;;5096352;28;20640;-49
2022/12/20 12:56:47;;;;;;;3.45;1.05;;;;;;;;;;5097397;28;20036;-48
2022/12/20 12:59:16;;;;;;;3.95;0.80;;;;;;;;;;5097875;28;20035;-51
2022/12/20 13:01:42;;;;;;;2.28;1.00;;;;;;;;;;5100243;28;20089;-51
2022/12/20 13:04:10;;;;;;;1.33;0.80;;;;;;;;;;5098427;28;20040;-51
2022/12/20 13:06:36;;;;;;;5.15;1.00;;;;;;;;;;5098515;28;20161;-52
2022/12/20 13:09:02;;;;;;;2.17;1.02;;;;;;;;;;5096725;28;20042;-47
2022/12/20 13:11:30;;;;;;;2.50;0.90;;;;;;;;;;5098138;28;20020;-49
2022/12/20 13:14:12;;;;;;;2.72;1.10;;;;;;;;;;5096070;28;20548;-48
2022/12/20 13:16:40;;;;;;;1.30;0.82;;;;;;;;;;5097632;28;20036;-50
2022/12/20 13:19:30;;;;;;;2.10;0.82;;;;;;;;;;5096220;28;20036;-51
2022/12/20 13:22:05;;;;;;;3.30;1.27;;;;;;;;;;5098683;28;20023;-50
2022/12/20 13:24:52;;;;;;;0.93;0.70;;;;;;;;;;5095755;27;20077;-51
2022/12/20 13:27:24;;;;;;;3.85;1.23;;;;;;;;;;5099562;28;20023;-50
2022/12/20 13:29:58;;;;;;;3.22;1.00;;;;;;;;;;5098578;27;20835;-48
2022/12/20 13:32:24;;;;;;;;;;;;;;;;;;5100189;27;20094;-49
2022/12/20 13:34:55;;;;;;;1.63;0.90;;;;;;;;;;5095046;27;20048;-50
2022/12/20 13:37:41;;;;;;;1.80;1.00;;;;;;;;;;5098905;28;20046;-52
2022/12/20 13:40:19;;;;;;;2.03;0.70;;;;;;;;;;5046067;28;20043;-50
2022/12/20 13:42:46;;;;;;;2.05;0.93;;;;;;;;;;5098648;28;20468;-49
2022/12/20 13:45:14;;;;;;;3.53;0.90;;;;;;;;;;5097080;28;20060;-49
2022/12/20 13:47:43;;;;;;;2.25;1.00;;;;;;;;;;5099278;27;21281;-51
2022/12/20 13:50:22;;;;;;;1.20;0.80;;;;;;;;;;5098099;27;20573;-50
2022/12/20 13:52:48;;;;;;;3.58;0.80;;;;;;;;;;5098292;28;20033;-50
2022/12/20 13:55:24;;;;;;;3.22;0.90;;;;;;;;;;5096429;28;20054;-51
2022/12/20 13:57:51;;;;;;;3.47;1.00;;;;;;;;;;5099704;28;20027;-49
2022/12/20 14:00:18;;;;;;;0.70;0.70;;;;;;;;;;5094194;28;20019;-48
2022/12/20 14:02:44;;;;;;;2.17;0.73;;;;;;;;;;5098105;28;20035;-50
2022/12/20 14:05:19;;;;;;;4.82;1.20;;;;;;;;;;5096844;28;20035;-48
2022/12/20 14:07:47;;;;;;;2.03;1.00;;;;;;;;;;5099217;28;20058;-50
2022/12/20 14:10:18;;;;;;;2.70;0.85;;;;;;;;;;5096774;28;20035;-51
2022/12/20 14:12:45;;;;;;;1.52;0.98;;;;;;;;;;5095688;28;20035;-51
2022/12/20 14:15:24;;;;;;;1.58;1.00;;;;;;;;;;5098710;28;20399;-52
2022/12/20 14:17:50;;;;;;;1.65;1.13;;;;;;;;;;5101139;28;20036;-52
2022/12/20 14:20:18;;;;;;;3.20;0.88;;;;;;;;;;5104279;28;20027;-47
2022/12/20 14:22:47;;;;;;;2.10;0.90;;;;;;;;;;5098009;28;20077;-48
2022/12/20 14:25:16;;;;;;;3.00;1.00;;;;;;;;;;5106489;28;20027;-51
2022/12/20 14:27:42;;;;;;;2.78;1.33;;;;;;;;;;5106346;27;20062;-49
2022/12/20 14:30:25;;;;;;;6.93;0.98;;;;;;;;;;5104386;28;20418;-47
2022/12/20 14:32:51;;;;;;;3.25;0.90;;;;;;;;;;5103524;27;20015;-52
2022/12/20 14:35:20;;;;;;;3.97;0.85;;;;;;;;;;5099084;28;20027;-48
2022/12/20 14:37:57;;;;;;;4.05;1.20;;;;;;;;;;5104237;28;20038;-48
2022/12/20 14:40:24;;;;;;;3.53;1.50;;;;;;;;;;5102554;28;20028;-49
2022/12/20 14:42:50;;;;;;;1.55;0.70;;;;;;;;;;5102511;28;20031;-51
2022/12/20 14:45:19;;;;;;;2.15;1.35;;;;;;;;;;5100706;28;20019;-51
2022/12/20 14:47:54;;;;;;;7.05;4.00;;;;;;;;;;5099578;28;20028;-47
2022/12/20 14:50:23;;;;;;;7.40;2.75;;;;;;;;;;5108639;27;20367;-48
2022/12/20 14:52:49;;;;;;;4.55;2.08;;;;;;;;;;5103947;28;20098;-50
2022/12/20 14:55:17;;;;;;;3.30;1.63;;;;;;;;;;5099638;28;20081;-51
2022/12/20 14:57:50;;;;;;;1.95;1.13;;;;;;;;;;5102421;28;20036;-48
2022/12/20 15:00:26;;;;;;;1.70;1.05;;;;;;;;;;5101958;28;20561;-51
2022/12/20 15:02:52;;;;;;;2.40;1.17;;;;;;;;;;5108225;27;20031;-52
2022/12/20 15:05:34;;;;;;;1.65;1.08;;;;;;;;;;5097807;28;20020;-52
2022/12/20 15:08:13;;;;;;;2.78;1.48;;;;;;;;;;5101073;28;20106;-47
2022/12/20 15:10:41;;;;;;;3.10;1.00;;;;;;;;;;5103499;27;20031;-50
2022/12/20 15:13:12;;;;;;;1.63;1.00;;;;;;;;;;5095215;28;20050;-49
2022/12/20 15:15:38;;;;;;;2.28;0.93;;;;;;;;;;5093555;28;20055;-49
2022/12/20 15:18:11;;;;;;;1.33;0.90;;;;;;;;;;5101224;28;20036;-51
2022/12/20 15:20:37;;;;;;;2.53;1.35;;;;;;;;;;5099936;28;20578;-50
2022/12/20 15:23:03;;;;;;;2.40;1.40;;;;;;;;;;5103554;28;20055;-49
2022/12/20 15:25:31;;;;;;;1.52;1.02;;;;;;;;;;5103051;28;20028;-49
2022/12/20 15:27:57;;;;;;;3.60;1.15;;;;;;;;;;5103546;28;20055;-50
2022/12/20 15:30:23;;;;;;;2.72;0.95;;;;;;;;;;5100702;28;20031;-50
2022/12/20 15:32:49;;;;;;;2.00;1.10;;;;;;;;;;5096330;28;20028;-47
2022/12/20 15:35:15;;;;;;;2.97;1.13;;;;;;;;;;5105879;27;20028;-46
2022/12/20 15:37:41;;;;;;;1.30;0.88;;;;;;;;;;5107584;28;20478;-47
2022/12/20 15:40:12;;;;;;;1.40;0.85;;;;;;;;;;5091845;28;20031;-46
2022/12/20 15:42:40;;;;;;;2.72;1.05;;;;;;;;;;5099376;28;20032;-45
2022/12/20 15:45:06;;;;;;;2.80;1.00;;;;;;;;;;5101130;28;20455;-45
2022/12/20 15:47:32;;;;;;;1.77;1.08;;;;;;;;;;5102385;28;20024;-47
2022/12/20 15:49:58;;;;;;;1.83;0.73;;;;;;;;;;5102730;28;20098;-45
2022/12/20 15:52:24;;;;;;;2.72;0.90;;;;;;;;;;5095690;28;20029;-46
2022/12/20 15:54:50;;;;;;;1.85;0.80;;;;;;;;;;5088055;28;20564;-48
2022/12/20 15:57:16;;;;;;;2.08;1.10;;;;;;;;;;5100791;28;20102;-49
2022/12/20 15:59:42;;;;;;;1.92;0.80;;;;;;;;;;5106688;28;20449;-46
2022/12/20 16:02:28;;;;;;;3.05;1.10;;;;;;;;;;5107338;28;20411;-46
2022/12/20 16:04:54;;;;;;;2.95;1.45;;;;;;;;;;5108271;28;20027;-47
2022/12/20 16:07:20;;;;;;;4.47;1.90;;;;;;;;;;5102870;28;20034;-45
2022/12/20 16:09:46;;;;;;;3.42;1.60;;;;;;;;;;5103730;28;20035;-48
2022/12/20 16:12:17;;;;;;;1.98;1.17;;;;;;;;;;5101348;28;20024;-43
2022/12/20 16:14:43;;;;;;;4.40;2.97;;;;;;;;;;5104601;28;20555;-44
2022/12/20 16:17:15;;;;;;;5.53;2.85;;;;;;;;;;5104539;28;20024;-45
2022/12/20 16:19:42;;;;;;;4.15;2.10;;;;;;;;;;5104148;27;20059;-43
2022/12/20 16:22:14;;;;;;;3.58;1.90;;;;;;;;;;5104966;28;20035;-44
2022/12/20 16:24:40;;;;;;;2.28;1.10;;;;;;;;;;5101572;28;20063;-44
2022/12/20 16:27:06;;;;;;;1.83;1.17;;;;;;;;;;5104623;28;20510;-44
2022/12/20 16:29:32;;;;;;;3.10;1.27;;;;;;;;;;5101814;28;20106;-46
2022/12/20 16:31:58;;;;;;;7.80;1.67;;;;;;;;;;5100734;27;20027;-45
2022/12/20 16:34:24;;;;;;;2.40;1.38;;;;;;;;;;5104307;28;20555;-45
2022/12/20 16:36:51;;;;;;;2.38;1.27;;;;;;;;;;5104897;27;20527;-48
2022/12/20 16:39:17;;;;;;;1.95;1.23;;;;;;;;;;5109829;28;20024;-46
2022/12/20 16:41:43;;;;;;;3.15;1.58;;;;;;;;;;5093963;28;20032;-48
2022/12/20 16:44:16;;;;;;;3.53;1.58;;;;;;;;;;5091687;28;20032;-46
2022/12/20 16:46:44;;;;;;;4.30;2.17;;;;;;;;;;5102451;28;20032;-44
2022/12/20 16:49:11;;;;;;;3.28;1.40;;;;;;;;;;5105060;28;20709;-46
2022/12/20 16:51:44;;;;;;;4.40;1.15;;;;;;;;;;5111486;28;20386;-45
2022/12/20 16:54:15;;;;;;;4.47;1.50;;;;;;;;;;5111478;28;20031;-48
2022/12/20 16:56:41;;;;;;;3.08;1.10;;;;;;;;;;5111360;28;20039;-47
2022/12/20 16:59:08;;;;;;;2.45;1.63;;;;;;;;;;5104679;28;20030;-45
2022/12/20 17:01:35;;;;;;;2.00;1.10;;;;;;;;;;5102329;28;20035;-46
2022/12/20 17:04:01;;;;;;;3.90;1.40;;;;;;;;;;5110911;28;20510;-49
2022/12/20 17:06:28;;;;;;;4.25;1.60;;;;;;;;;;5111525;28;20633;-48
2022/12/20 17:08:54;;;;;;;5.20;1.45;;;;;;;;;;5110458;28;20081;-45
2022/12/20 17:11:22;;;;;;;5.53;1.30;;;;;;;;;;5110362;28;20031;-47
2022/12/20 17:13:49;;;;;;;3.80;1.45;;;;;;;;;;5091359;28;20028;-49
2022/12/20 17:16:16;;;;;;;3.78;1.58;;;;;;;;;;5106557;28;20031;-44
2022/12/20 17:18:42;;;;;;;4.57;1.08;;;;;;;;;;5108268;28;20051;-46
2022/12/20 17:21:18;;;;;;;3.97;1.52;;;;;;;;;;5110986;27;20031;-45
2022/12/20 17:23:44;;;;;;;5.75;2.05;;;;;;;;;;5110994;28;20360;-49
2022/12/20 17:26:22;;;;;;;2.30;1.50;;;;;;;;;;5111471;28;20498;-46
2022/12/20 17:28:48;;;;;;;3.80;1.60;;;;;;;;;;5111044;28;20107;-47
2022/12/20 17:31:30;;;;;;;3.17;1.25;;;;;;;;;;5109126;28;20035;-46
2022/12/20 17:33:57;;;;;;;2.40;1.13;;;;;;;;;;5108572;28;20139;-47
2022/12/20 17:36:23;;;;;;;3.90;1.30;;;;;;;;;;5110218;28;20059;-46
2022/12/20 17:38:50;;;;;;;2.65;1.15;;;;;;;;;;5105736;28;20039;-46
2022/12/20 17:41:23;;;;;;;5.45;1.40;;;;;;;;;;5110557;28;20048;-43
2022/12/20 17:43:50;;;;;;;5.00;1.80;;;;;;;;;;5107416;28;20092;-44
2022/12/20 17:46:16;;;;;;;7.85;5.35;;;;;;;;;;5110674;28;20028;-47
2022/12/20 17:48:42;;;;;;;15.45;8.02;;;;;;;;;;5118102;27;20034;-48
2022/12/20 17:51:35;;;;;;;9.05;5.32;;;;;;;;;;5109604;28;20486;-46
2022/12/20 17:54:01;;;;;;;8.52;4.78;;;;;;;;;;5099841;28;20046;-44
2022/12/20 17:56:36;;;;;;;4.50;2.45;;;;;;;;;;5108079;28;20063;-45
2022/12/20 17:59:03;;;;;;;3.72;1.90;;;;;;;;;;5109608;28;20027;-45
2022/12/20 18:01:33;;;;;;;3.92;1.42;;;;;;;;;;5107963;28;20027;-46
2022/12/20 18:04:00;;;;;;;2.70;1.45;;;;;;;;;;5107676;28;20023;-45
2022/12/20 18:06:27;;;;;;;4.95;1.40;;;;;;;;;;5108646;28;20023;-46
2022/12/20 18:08:54;;;;;;;4.82;1.45;;;;;;;;;;5110079;28;20111;-48
2022/12/20 18:11:23;;;;;;;2.65;1.20;;;;;;;;;;5110491;28;20027;-44
2022/12/20 18:13:50;;;;;;;3.75;1.13;;;;;;;;;;5108123;28;20079;-45
2022/12/20 18:16:18;;;;;;;3.63;1.83;;;;;;;;;;5108448;28;20115;-45
2022/12/20 18:18:46;;;;;;;3.97;1.73;;;;;;;;;;5107189;28;20066;-45
2022/12/20 18:21:13;;;;;;;3.20;1.00;;;;;;;;;;5107929;28;20047;-43
2022/12/20 18:23:39;;;;;;;3.10;1.45;;;;;;;;;;5107610;28;20023;-43
2022/12/20 18:26:13;;;;;;;2.88;1.33;;;;;;;;;;5103982;28;20050;-44
2022/12/20 18:28:39;;;;;;;4.55;1.30;;;;;;;;;;5108228;28;20035;-43
2022/12/20 18:31:07;;;;;;;4.07;1.33;;;;;;;;;;5107078;28;20031;-48
2022/12/20 18:33:33;;;;;;;6.30;1.30;;;;;;;;;;5107704;28;20038;-44
2022/12/20 18:36:07;;;;;;;4.35;1.35;;;;;;;;;;5100535;28;20032;-47
2022/12/20 18:38:35;;;;;;;3.13;1.55;;;;;;;;;;5108329;28;20103;-45
2022/12/20 18:41:02;;;;;;;3.58;1.58;;;;;;;;;;5108034;28;20505;-44
2022/12/20 18:43:29;;;;;;;4.72;1.52;;;;;;;;;;5108138;28;20510;-45
2022/12/20 18:45:55;;;;;;;4.70;1.50;;;;;;;;;;5107055;28;20035;-44
2022/12/20 18:48:25;;;;;;;2.90;1.45;;;;;;;;;;5093134;27;20490;-46
2022/12/20 18:50:52;;;;;;;5.65;1.67;;;;;;;;;;5107427;28;20028;-45
2022/12/20 18:53:19;;;;;;;3.47;1.52;;;;;;;;;;5106551;28;20107;-44
2022/12/20 18:55:45;;;;;;;4.25;2.00;;;;;;;;;;5107702;28;20032;-46
2022/12/20 18:58:12;;;;;;;2.88;1.48;;;;;;;;;;5103582;28;20069;-45
2022/12/20 19:00:38;;;;;;;3.05;1.13;;;;;;;;;;5104554;28;20118;-43
2022/12/20 19:03:05;;;;;;;2.50;1.30;;;;;;;;;;5106312;28;20114;-47
2022/12/20 19:05:34;;;;;;;2.88;1.58;;;;;;;;;;5107463;28;20119;-44
2022/12/20 19:08:00;;;;;;;4.88;1.52;;;;;;;;;;5105213;28;20518;-44
2022/12/20 19:10:30;;;;;;;2.33;1.27;;;;;;;;;;5104580;28;20406;-45
2022/12/20 19:12:56;;;;;;;3.97;1.60;;;;;;;;;;5107311;28;20110;-47
2022/12/20 19:15:22;;;;;;;2.78;1.20;;;;;;;;;;5105407;28;20481;-44
2022/12/20 19:17:49;;;;;;;2.97;1.30;;;;;;;;;;5105326;28;20023;-46
2022/12/20 19:20:15;;;;;;;2.70;0.90;;;;;;;;;;5103121;28;20135;-46
2022/12/20 19:22:41;;;;;;;2.08;1.10;;;;;;;;;;5106771;28;20070;-47
2022/12/20 19:25:07;;;;;;;3.05;1.20;;;;;;;;;;5108728;28;20019;-48
2022/12/20 19:27:33;;;;;;;4.00;1.40;;;;;;;;;;5109063;28;20024;-48
2022/12/20 19:29:59;;;;;;;1.92;1.10;;;;;;;;;;5106400;28;20024;-46
2022/12/20 19:32:26;;;;;;;2.20;1.10;;;;;;;;;;5106813;28;20024;-44
2022/12/20 19:34:52;;;;;;;2.13;1.10;;;;;;;;;;5103516;27;20036;-45
2022/12/20 19:37:18;;;;;;;2.70;1.25;;;;;;;;;;5106913;28;20088;-46
2022/12/20 19:39:44;;;;;;;4.80;1.20;;;;;;;;;;5097774;28;20028;-48
2022/12/20 19:42:10;;;;;;;2.47;1.27;;;;;;;;;;5108324;28;20512;-45
2022/12/20 19:44:37;;;;;;;3.47;1.05;;;;;;;;;;5101600;28;20046;-45
2022/12/20 19:47:04;;;;;;;3.30;1.15;;;;;;;;;;5094102;28;20030;-44
2022/12/20 19:49:31;;;;;;;3.78;1.50;;;;;;;;;;5105262;28;20114;-44
2022/12/20 19:51:57;;;;;;;3.55;1.48;;;;;;;;;;5105589;28;20024;-46
2022/12/20 19:54:23;;;;;;;4.65;1.67;;;;;;;;;;5098897;28;20032;-43
2022/12/20 19:56:49;;;;;;;4.22;1.80;;;;;;;;;;5089774;28;20023;-46
2022/12/20 19:59:15;;;;;;;3.28;1.50;;;;;;;;;;5105758;28;20032;-44
2022/12/20 20:01:41;;;;;;;4.53;1.83;;;;;;;;;;5105130;28;20493;-44